Sarcobatus Flat, Nevada Weather observations

Data are for observation ending at time listed.
 Day   Time    Ave.   Ave.  Ave.  Vector   Max.   Stn.    Total    Solar   Ave.  
  of    of     Air    Rel.  Wind   Wind    Wind   Baro.  Precip.   Rad.    Soil  
Year   Day     Temp.  Hum.  Speed  Dir.    Gust   Pres.                    Temp. 
2016   (PST)    F      %     mph   deg.    mph     mb.     in.     W/m2     F   
------------------------------------------------------------------------------
 238   17:30   88.3    10   13.6   148     23.0   874.5    0.00     114    999.0
 238   17:40   87.8    11   12.5   150     17.3   874.5    0.00      86    999.0
 238   17:50   87.2    11   13.2   151     16.4   874.6    0.00      62    999.0
 238   18:00   86.6    11   13.9   152     18.7   874.7    0.00      40    999.0
 238   18:10   85.9    10   12.6   154     17.1   874.7    0.00      22    999.0
 238   18:20   85.2    11   11.0   156     15.0   874.9    0.00      10    999.0
 238   18:30   84.2    11    9.0   160     11.5   875.0    0.00       4    999.0
 238   18:40   83.2    11    7.9   158     10.1   875.1    0.00       1    999.0
 238   18:50   81.9    12    6.5   160      9.3   875.3    0.00       0    999.0
 238   19:00   80.8    12    6.3   169      8.3   875.3    0.00       0    999.0
 238   19:10   80.3    12    6.2   180      8.1   875.4    0.00       0    999.0
 238   19:20   79.2    12    4.7   168      7.0   875.6    0.00       0    999.0
 238   19:30   77.1    13    1.5    92      3.4   875.8    0.00       0    999.0
 238   19:40   75.1    13    1.2   282      2.1   875.9    0.00       0    999.0
 238   19:50   75.0    14    1.4   338      2.8   876.0    0.00       0    999.0
 238   20:00   75.1    13    2.7   109      4.7   876.1    0.00       0    999.0
 238   20:10   75.0    13    3.2    99      4.7   876.2    0.00       0    999.0
 238   20:20   73.2    14    4.8    80      6.4   876.3    0.00       0    999.0
 238   20:30   73.1    14    4.0    78      5.4   876.4    0.00       0    999.0
 238   20:40   73.3    14    4.8    84      6.3   876.5    0.00       0    999.0
 238   20:50   73.5    13    4.1    95      5.4   876.5    0.00       0    999.0
 238   21:00   73.8    13    3.4    76      4.9   876.6    0.00       0    999.0
 238   21:10   73.8    13    2.2    41      4.2   876.7    0.00       0    999.0
 238   21:20   74.3    13    3.3    19      7.5   876.8    0.00       0    999.0
 238   21:30   71.3    14    3.7   346      8.2   876.8    0.00       0    999.0
 238   21:40   71.2    14    4.0     7      4.9   876.7    0.00       0    999.0
 238   21:50   72.5    14    2.2    26      3.9   876.7    0.00       0    999.0
 238   22:00   71.5    14    2.7    20      4.5   876.7    0.00       0    999.0
 238   22:10   68.9    14    4.2     5      5.2   876.7    0.00       0    999.0
 238   22:20   66.5    15    4.5   319      6.4   876.7    0.00       0    999.0
 238   22:30   66.7    16    5.4   330      7.0   876.8    0.00       0    999.0
 238   22:40   67.5    16    3.9   330      5.7   876.9    0.00       0    999.0
 238   22:50   67.1    16    2.8   282      6.1   876.9    0.00       0    999.0
 238   23:00   65.6    18    5.2   323      6.7   877.0    0.00       0    999.0
 238   23:10   64.4    19    3.9   346      6.3   876.9    0.00       0    999.0
 238   23:20   64.0    19    4.1   357      5.8   877.0    0.00       0    999.0
 238   23:30   64.0    19    3.0   316      7.4   877.0    0.00       0    999.0
 238   23:40   63.4    19    0.8    50      3.6   877.1    0.00       0    999.0
 238   23:50   63.1    19    0.9   146      2.0   877.1    0.00       0    999.0
 239    0:00   62.6    20    1.3   124      4.5   877.0    0.00       0    999.0
 239    0:10   60.0    20    4.2   338      5.6   877.1    0.00       0    999.0
 239    0:20   60.4    20    4.2   352      5.3   877.1    0.00       0    999.0
 239    0:30   61.1    19    4.1   337      6.0   877.1    0.00       0    999.0
 239    0:40   60.4    20    2.2    16      3.7   877.1    0.00       0    999.0
 239    0:50   60.4    20    3.2     3      4.4   876.9    0.00       0    999.0
 239    1:00   60.2    20    1.0   350      3.4   877.0    0.00       0    999.0
 239    1:10   59.0    20    2.7   268      6.3   877.1    0.00       0    999.0
 239    1:20   59.3    21    3.8   278      5.5   877.1    0.00       0    999.0
 239    1:30   58.9    21    0.5   304      2.2   877.1    0.00       0    999.0
 239    1:40   58.4    21    2.3    13      4.1   877.1    0.00       0    999.0
 239    1:50   58.0    21    3.5    28      4.6   877.0    0.00       0    999.0
 239    2:00   57.8    20    2.6    86      4.8   877.1    0.00       0    999.0
 239    2:10   55.1    22    3.8   176      6.4   877.2    0.00       0    999.0
 239    2:20   55.0    24    2.8   234      5.3   877.3    0.00       0    999.0
 239    2:30   54.8    24    1.7    38      4.2   877.4    0.00       0    999.0
 239    2:40   55.5    24    3.8    54      4.6   877.5    0.00       0    999.0
 239    2:50   56.3    22    2.8    44      5.0   877.7    0.00       0    999.0
 239    3:00   54.6    23    4.1   347      5.5   877.8    0.00       0    999.0
 239    3:10   55.5    23    3.5     2      5.1   877.8    0.00       0    999.0
 239    3:20   55.2    23    2.8   355      3.9   877.7    0.00       0    999.0
 239    3:30   54.1    23    2.1   248      4.2   877.8    0.00       0    999.0
 239    3:40   53.4    24    2.8   311      4.6   877.9    0.00       0    999.0
 239    3:50   55.1    22    3.0    13      4.5   878.0    0.00       0    999.0
 239    4:00   53.6    23    1.9    38      3.7   878.1    0.00       0    999.0
 239    4:10   53.9    23    2.4   348      3.1   877.9    0.00       0    999.0
 239    4:20   53.8    23    2.6   347      3.8   878.0    0.00       0    999.0
 239    4:30   52.2    23    2.9   339      3.9   878.1    0.00       0    999.0
 239    4:40   52.0    24    5.0   332      6.1   878.2    0.00       0    999.0
 239    4:50   53.0    24    4.9   332      6.1   878.1    0.00       0    999.0
 239    5:00   53.0    24    3.9   325      5.0   878.1    0.00       0    999.0
 239    5:10   52.8    25    2.6   335      4.4   878.4    0.00       1    999.0
 239    5:20   52.6    25    3.9     7      5.6   878.6    0.00       4    999.0
 239    5:30   52.5    25    3.3    26      5.5   878.7    0.00      11    999.0
 239    5:40   52.2    25    2.7    68      3.6   878.8    0.00      22    999.0
 239    5:50   52.6    26    3.1    56      3.8   878.8    0.00      51    999.0
 239    6:00   54.6    25    2.5    38      4.5   878.9    0.00      76    999.0
 239    6:10   56.4    23    2.4   302      3.5   878.9    0.00     103    999.0
 239    6:20   59.5    22    0.4   327      1.8   879.0    0.00     133    999.0
 239    6:30   61.1    20    1.7   247      2.9   879.2    0.00     167    999.0
 239    6:40   61.3    20    2.4   201      3.1   879.3    0.00     197    999.0
 239    6:50   61.8    20    1.5   183      2.4   879.4    0.00     233    999.0
 239    7:00   62.7    20    1.4   164      2.3   879.4    0.00     269    999.0
 239    7:10   64.6    19    1.2   154      2.4   879.3    0.00     301    999.0
 239    7:20   65.9    18    1.8   104      2.7   879.4    0.00     335    999.0
 239    7:30   69.2    16    0.4    17      1.2   879.4    0.00     372    999.0
 239    7:40   71.2    15    1.1   353      2.5   879.3    0.00     409    999.0
 239    7:50   72.6    15    1.5   338      2.7   879.2    0.00     445    999.0
 239    8:00   74.2    15    1.2   338      2.4   879.1    0.00     480    999.0
 239    8:10   76.6    14    0.6   246      2.0   879.1    0.00     513    999.0
 239    8:20   77.7    14    1.8   157      4.8   879.1    0.00     543    999.0
 239    8:30   77.3    17    3.9   163      7.7   879.0    0.00     575    999.0
 239    8:40   77.6    17    4.4   140      7.3   879.0    0.00     604    999.0
 239    8:50   78.0    17    4.8   151      7.1   879.0    0.00     633    999.0
 239    9:00   78.5    17    5.5   138      8.8   878.9    0.00     662    999.0
 239    9:10   79.2    16    4.4   121      8.7   878.9    0.00     689    999.0
 239    9:20   80.3    16    5.1   151      8.6   878.8    0.00     715    999.0
 239    9:30   80.9    16    7.6   162     13.2   878.7    0.00     739    999.0
 239    9:40   81.8    15    6.5   157     11.0   878.6    0.00     761    999.0
 239    9:50   82.3    15    8.2   154     12.6   878.7    0.00     781    999.0
 239   10:00   83.1    14    9.9   163     17.0   878.7    0.00     805    999.0
 239   10:10   83.3    14   10.5   157     15.8   878.6    0.00     823    999.0
 239   10:20   83.8    14    7.9   181     14.0   878.4    0.00     832    999.0
 239   10:30   84.6    14    6.2   155     12.9   878.4    0.00     852    999.0
 239   10:40   85.7    13    6.8   188     18.2   878.0    0.00     874    999.0
 239   10:50   86.5    13    8.8   190     14.3   878.0    0.00     885    999.0
 239   11:00   86.9    13    7.8   208     14.0   877.8    0.00     894    999.0
 239   11:10   86.9    13    5.0   182     10.6   877.7    0.00     902    999.0
 239   11:20   87.0    13    5.7   205     12.9   877.7    0.00     911    999.0
 239   11:30   88.5    12   11.3   196     23.0   877.5    0.00     935    999.0
 239   11:40   88.4    12    7.0   227     20.0   877.4    0.00     918    999.0
 239   11:50   88.9    11   13.6   236     20.7   877.4    0.00     889    999.0
 239   12:00   88.4    11    5.7   246     14.3   877.3    0.00     941    999.0
 239   12:10   89.3    11    9.4   221     14.7   877.2    0.00     932    999.0
 239   12:20   89.2    11    8.9   192     15.9   877.1    0.00     907    999.0
 239   12:30   89.1    11   11.6   176     20.4   877.0    0.00     892    999.0
 239   12:40   88.4    12   10.7   158     19.5   877.0    0.00     936    999.0
 239   12:50   89.6    11   17.1   145     26.0   876.9    0.00     916    999.0
 239   13:00   89.4    11   15.9   139     25.3   876.8    0.00     911    999.0
 239   13:10   89.8    11   11.7   163     26.2   876.8    0.00     857    999.0
 239   13:20   89.7    11   16.2   142     25.2   876.6    0.00     883    999.0
 239   13:30   89.7    11   13.2   142     21.0   876.5    0.00     871    999.0
 239   13:40   90.7    11   17.0   151     28.7   876.3    0.00     845    999.0
 239   13:50   89.1    11   15.0   139     25.5   876.2    0.00     825    999.0
 239   14:00   90.3    11   15.7   159     25.4   876.1    0.00     821    999.0
 239   14:10   90.1    11   13.3   178     22.4   876.0    0.00     794    999.0
 239   14:20   89.2    11   12.8   160     22.7   876.0    0.00     718    999.0
 239   14:30   89.9    11   16.4   147     22.7   875.8    0.00     764    999.0
 239   14:40   90.5    11   16.7   150     24.4   875.8    0.00     728    999.0
 239   14:50   89.2    11   16.1   140     22.6   875.7    0.00     693    999.0
 239   15:00   89.6    11   16.9   149     25.0   875.7    0.00     673    999.0
 239   15:10   89.1    11   10.7   140     19.4   875.7    0.00     632    999.0
 239   15:20   88.8    12   13.2   124     20.8   875.7    0.00     583    999.0
 239   15:30   89.3    11   11.7   155     19.0   875.7    0.00     549    999.0
 239   15:40   89.7    11   14.3   156     30.8   875.6    0.00     532    999.0
 239   15:50   88.8    11    9.0   188     19.8   875.6    0.00     448    999.0
 239   16:00   87.7    11    6.6   137     11.8   875.6    0.00     280    999.0
 239   16:10   87.9    11   12.7   133     19.7   875.5    0.00     243    999.0
 239   16:20   87.7    11   11.4   127     16.0   875.5    0.00     276    999.0
 239   16:30   87.7    11   12.5   125     17.5   875.5    0.00     274    999.0
 239   16:40   87.7    11   11.8   136     18.0   875.4    0.00     317    999.0
 239   16:50   87.8    11   10.5   170     18.0   875.4    0.00     269    999.0
 239   17:00   87.7    11   11.3   152     17.0   875.3    0.00     202    999.0
 239   17:10   87.5    11   11.8   153     16.4   875.3    0.00     225    999.0
 239   17:20   87.3    11   11.9   152     19.1   875.3    0.00     194    999.0

Return to Sarcobatus Flat, Nevada graphs page.


Western Regional Climate Center,wrcc@dri.edu